< < Back
Terminal Aerodrome Forecast


Current Version              Previous Versions:   1  2  3  4  5  6  7  8  9  

Terminal Aerodrome Forecast

267
FTUS42 KTAE 242330
TAFTLH
TAF
KTLH 242330Z 2500/2524 VRB03KT P6SM SCT250
     FM251800 12008KT P6SM SCT040=



Latest METAR

728
SAUS80 KWBC 251500 RRB
MTRTLH
METAR KTLH 251453Z 09008KT 10SM SCT025 SCT250 31/23 A3006 RMK AO2 SLP178
T03060233 50005


USA.gov is the U.S. government's official web portal to all federal, state and local government web resources and services.